sensor_id;sensor_type;location;lat;lon;timestamp;P1;durP1;ratioP1;P2;durP2;ratioP2
9280;SDS011;4679;47.966;7.958;2023-08-24T08:09:32;2.92;;;2.30;;
9280;SDS011;4679;47.966;7.958;2023-08-24T08:11:34;4.68;;;2.40;;
9280;SDS011;4679;47.966;7.958;2023-08-24T08:13:36;2.85;;;2.33;;
9280;SDS011;4679;47.966;7.958;2023-08-24T08:15:37;3.13;;;2.83;;
9280;SDS011;4679;47.966;7.958;2023-08-24T08:17:39;4.63;;;2.85;;
9280;SDS011;4679;47.966;7.958;2023-08-24T08:19:42;2.80;;;2.50;;
9280;SDS011;4679;47.966;7.958;2023-08-24T08:21:44;3.00;;;2.50;;
9280;SDS011;4679;47.966;7.958;2023-08-24T08:23:46;3.92;;;2.80;;
9280;SDS011;4679;47.966;7.958;2023-08-24T08:25:49;3.65;;;2.13;;
9280;SDS011;4679;47.966;7.958;2023-08-24T08:27:50;3.00;;;2.70;;
9280;SDS011;4679;47.966;7.958;2023-08-24T08:29:52;4.47;;;2.58;;
9280;SDS011;4679;47.966;7.958;2023-08-24T08:31:54;3.33;;;2.60;;
9280;SDS011;4679;47.966;7.958;2023-08-24T08:33:55;4.38;;;3.17;;
9280;SDS011;4679;47.966;7.958;2023-08-24T08:35:57;2.38;;;2.28;;
9280;SDS011;4679;47.966;7.958;2023-08-24T08:37:59;2.92;;;2.60;;
9280;SDS011;4679;47.966;7.958;2023-08-24T08:40:00;3.45;;;2.88;;
9280;SDS011;4679;47.966;7.958;2023-08-24T08:42:14;4.65;;;2.78;;
9280;SDS011;4679;47.966;7.958;2023-08-24T08:44:15;2.83;;;2.38;;
9280;SDS011;4679;47.966;7.958;2023-08-24T08:46:17;3.00;;;2.60;;
9280;SDS011;4679;47.966;7.958;2023-08-24T08:48:18;4.10;;;2.58;;
9280;SDS011;4679;47.966;7.958;2023-08-24T08:50:21;3.28;;;2.33;;
9280;SDS011;4679;47.966;7.958;2023-08-24T08:52:23;6.28;;;3.03;;
9280;SDS011;4679;47.966;7.958;2023-08-24T08:54:25;3.00;;;2.60;;
9280;SDS011;4679;47.966;7.958;2023-08-24T08:56:27;3.65;;;2.78;;
9280;SDS011;4679;47.966;7.958;2023-08-24T08:58:30;2.88;;;2.60;;
9280;SDS011;4679;47.966;7.958;2023-08-24T09:00:33;3.85;;;2.60;;
9280;SDS011;4679;47.966;7.958;2023-08-24T09:02:35;2.58;;;2.30;;
9280;SDS011;4679;47.966;7.958;2023-08-24T09:04:37;2.78;;;2.30;;
9280;SDS011;4679;47.966;7.958;2023-08-24T09:06:39;3.97;;;3.08;;
9280;SDS011;4679;47.966;7.958;2023-08-24T09:08:41;4.57;;;2.67;;
9280;SDS011;4679;47.966;7.958;2023-08-24T09:10:43;2.30;;;2.20;;
9280;SDS011;4679;47.966;7.958;2023-08-24T09:12:45;3.45;;;2.58;;
9280;SDS011;4679;47.966;7.958;2023-08-24T09:14:48;4.25;;;2.40;;
9280;SDS011;4679;47.966;7.958;2023-08-24T09:16:49;2.65;;;2.53;;
9280;SDS011;4679;47.966;7.958;2023-08-24T09:18:51;3.20;;;3.00;;
9280;SDS011;4679;47.966;7.958;2023-08-24T09:20:53;2.83;;;2.60;;
9280;SDS011;4679;47.966;7.958;2023-08-24T09:22:55;2.55;;;2.40;;
9280;SDS011;4679;47.966;7.958;2023-08-24T09:24:57;2.78;;;2.58;;
9280;SDS011;4679;47.966;7.958;2023-08-24T09:27:05;2.55;;;2.35;;
9280;SDS011;4679;47.966;7.958;2023-08-24T09:29:16;2.67;;;2.47;;
9280;SDS011;4679;47.966;7.958;2023-08-24T09:31:19;2.67;;;2.47;;
9280;SDS011;4679;47.966;7.958;2023-08-24T09:33:20;2.95;;;2.72;;
9280;SDS011;4679;47.966;7.958;2023-08-24T09:35:25;2.42;;;2.22;;
9280;SDS011;4679;47.966;7.958;2023-08-24T09:37:30;2.40;;;2.28;;
9280;SDS011;4679;47.966;7.958;2023-08-24T09:39:32;2.75;;;2.60;;
9280;SDS011;4679;47.966;7.958;2023-08-24T09:41:38;5.85;;;2.42;;
9280;SDS011;4679;47.966;7.958;2023-08-24T09:43:39;4.25;;;2.58;;
9280;SDS011;4679;47.966;7.958;2023-08-24T09:45:47;3.30;;;3.00;;
9280;SDS011;4679;47.966;7.958;2023-08-24T09:47:51;3.53;;;2.78;;
9280;SDS011;4679;47.966;7.958;2023-08-24T09:49:53;3.47;;;3.13;;
9280;SDS011;4679;47.966;7.958;2023-08-24T09:51:55;3.55;;;2.58;;
9280;SDS011;4679;47.966;7.958;2023-08-24T09:53:59;4.10;;;2.83;;
9280;SDS011;4679;47.966;7.958;2023-08-24T09:56:04;3.85;;;2.60;;
9280;SDS011;4679;47.966;7.958;2023-08-24T09:58:07;2.88;;;2.63;;
9280;SDS011;4679;47.966;7.958;2023-08-24T10:00:13;3.17;;;2.65;;
9280;SDS011;4679;47.966;7.958;2023-08-24T10:02:17;2.67;;;2.53;;
9280;SDS011;4679;47.966;7.958;2023-08-24T10:04:24;5.05;;;2.47;;
9280;SDS011;4679;47.966;7.958;2023-08-24T10:06:27;2.42;;;2.15;;
9280;SDS011;4679;47.966;7.958;2023-08-24T10:08:30;2.42;;;2.22;;
9280;SDS011;4679;47.966;7.958;2023-08-24T10:10:37;3.40;;;2.30;;
9280;SDS011;4679;47.966;7.958;2023-08-24T10:12:44;4.03;;;2.63;;
9280;SDS011;4679;47.966;7.958;2023-08-24T10:14:50;4.72;;;2.47;;
9280;SDS011;4679;47.966;7.958;2023-08-24T10:16:57;3.58;;;2.78;;
9280;SDS011;4679;47.966;7.958;2023-08-24T10:19:00;3.80;;;2.63;;
9280;SDS011;4679;47.966;7.958;2023-08-24T10:21:04;3.47;;;2.55;;
9280;SDS011;4679;47.966;7.958;2023-08-24T10:23:06;3.00;;;2.75;;
9280;SDS011;4679;47.966;7.958;2023-08-24T10:25:08;3.03;;;2.33;;
9280;SDS011;4679;47.966;7.958;2023-08-24T10:27:10;3.42;;;2.42;;
9280;SDS011;4679;47.966;7.958;2023-08-24T10:29:12;3.08;;;2.38;;
9280;SDS011;4679;47.966;7.958;2023-08-24T10:31:14;2.75;;;2.30;;
9280;SDS011;4679;47.966;7.958;2023-08-24T10:33:16;3.00;;;2.45;;
9280;SDS011;4679;47.966;7.958;2023-08-24T10:35:19;3.30;;;2.60;;
9280;SDS011;4679;47.966;7.958;2023-08-24T10:37:27;3.92;;;2.63;;
9280;SDS011;4679;47.966;7.958;2023-08-24T10:39:29;2.92;;;2.30;;
9280;SDS011;4679;47.966;7.958;2023-08-24T10:41:30;2.85;;;2.75;;
9280;SDS011;4679;47.966;7.958;2023-08-24T10:43:48;3.67;;;2.45;;
9280;SDS011;4679;47.966;7.958;2023-08-24T10:45:53;3.70;;;2.65;;
9280;SDS011;4679;47.966;7.958;2023-08-24T10:47:54;3.80;;;2.70;;
9280;SDS011;4679;47.966;7.958;2023-08-24T10:49:59;2.70;;;2.50;;
9280;SDS011;4679;47.966;7.958;2023-08-24T10:52:16;2.78;;;2.58;;
9280;SDS011;4679;47.966;7.958;2023-08-24T10:54:24;5.78;;;2.58;;
9280;SDS011;4679;47.966;7.958;2023-08-24T10:56:34;5.53;;;2.90;;
9280;SDS011;4679;47.966;7.958;2023-08-24T10:58:36;3.13;;;2.83;;
9280;SDS011;4679;47.966;7.958;2023-08-24T11:00:38;3.80;;;2.85;;
9280;SDS011;4679;47.966;7.958;2023-08-24T11:02:41;4.20;;;2.85;;
9280;SDS011;4679;47.966;7.958;2023-08-24T11:04:53;3.97;;;3.03;;
9280;SDS011;4679;47.966;7.958;2023-08-24T11:07:05;3.08;;;2.72;;
9280;SDS011;4679;47.966;7.958;2023-08-24T11:09:07;2.95;;;2.78;;
9280;SDS011;4679;47.966;7.958;2023-08-24T11:11:21;3.50;;;2.80;;
9280;SDS011;4679;47.966;7.958;2023-08-24T11:13:25;3.83;;;3.28;;
9280;SDS011;4679;47.966;7.958;2023-08-24T11:15:29;3.30;;;2.78;;
9280;SDS011;4679;47.966;7.958;2023-08-24T11:17:30;2.85;;;2.65;;
9280;SDS011;4679;47.966;7.958;2023-08-24T11:19:33;3.03;;;2.75;;
9280;SDS011;4679;47.966;7.958;2023-08-24T11:21:35;2.67;;;2.42;;
9280;SDS011;4679;47.966;7.958;2023-08-24T11:23:37;2.60;;;2.40;;
9280;SDS011;4679;47.966;7.958;2023-08-24T11:25:39;5.72;;;3.17;;
9280;SDS011;4679;47.966;7.958;2023-08-24T11:27:41;3.13;;;2.83;;
9280;SDS011;4679;47.966;7.958;2023-08-24T11:29:46;4.72;;;3.40;;
9280;SDS011;4679;47.966;7.958;2023-08-24T11:31:48;3.22;;;2.88;;
9280;SDS011;4679;47.966;7.958;2023-08-24T11:33:53;2.83;;;2.65;;
9280;SDS011;4679;47.966;7.958;2023-08-24T11:35:56;3.28;;;2.50;;
9280;SDS011;4679;47.966;7.958;2023-08-24T11:37:58;3.65;;;3.40;;
9280;SDS011;4679;47.966;7.958;2023-08-24T11:40:00;3.70;;;2.63;;
9280;SDS011;4679;47.966;7.958;2023-08-24T11:42:04;3.55;;;2.65;;
9280;SDS011;4679;47.966;7.958;2023-08-24T11:44:11;4.38;;;3.00;;
9280;SDS011;4679;47.966;7.958;2023-08-24T11:46:11;3.42;;;3.13;;
9280;SDS011;4679;47.966;7.958;2023-08-24T11:48:13;3.08;;;2.72;;
9280;SDS011;4679;47.966;7.958;2023-08-24T11:50:15;2.85;;;2.63;;
9280;SDS011;4679;47.966;7.958;2023-08-24T11:52:16;3.55;;;3.00;;
9280;SDS011;4679;47.966;7.958;2023-08-24T11:54:18;4.78;;;2.97;;
9280;SDS011;4679;47.966;7.958;2023-08-24T11:56:21;2.70;;;2.50;;
9280;SDS011;4679;47.966;7.958;2023-08-24T11:58:22;5.93;;;3.50;;
9280;SDS011;4679;47.966;7.958;2023-08-24T12:00:25;3.25;;;2.53;;
9280;SDS011;4679;47.966;7.958;2023-08-24T12:02:27;4.07;;;2.92;;
9280;SDS011;4679;47.966;7.958;2023-08-24T12:04:37;3.38;;;2.55;;
9280;SDS011;4679;47.966;7.958;2023-08-24T12:06:39;3.17;;;2.92;;
9280;SDS011;4679;47.966;7.958;2023-08-24T12:08:41;4.00;;;2.67;;
9280;SDS011;4679;47.966;7.958;2023-08-24T12:10:43;2.85;;;2.53;;
9280;SDS011;4679;47.966;7.958;2023-08-24T12:12:45;3.42;;;3.13;;
9280;SDS011;4679;47.966;7.958;2023-08-24T12:14:47;4.05;;;2.67;;
9280;SDS011;4679;47.966;7.958;2023-08-24T12:16:50;2.75;;;2.50;;
9280;SDS011;4679;47.966;7.958;2023-08-24T12:18:54;3.20;;;2.67;;
9280;SDS011;4679;47.966;7.958;2023-08-24T12:20:58;3.72;;;2.30;;
9280;SDS011;4679;47.966;7.958;2023-08-24T12:23:01;4.82;;;2.55;;
9280;SDS011;4679;47.966;7.958;2023-08-24T12:25:03;4.70;;;3.30;;
9280;SDS011;4679;47.966;7.958;2023-08-24T12:27:06;3.70;;;2.95;;
9280;SDS011;4679;47.966;7.958;2023-08-24T12:29:08;5.28;;;2.88;;
9280;SDS011;4679;47.966;7.958;2023-08-24T12:31:12;3.70;;;2.80;;
9280;SDS011;4679;47.966;7.958;2023-08-24T12:33:23;3.90;;;2.83;;
9280;SDS011;4679;47.966;7.958;2023-08-24T12:35:25;3.03;;;2.78;;
9280;SDS011;4679;47.966;7.958;2023-08-24T12:37:27;3.13;;;2.58;;
9280;SDS011;4679;47.966;7.958;2023-08-24T12:39:34;2.33;;;2.22;;
9280;SDS011;4679;47.966;7.958;2023-08-24T12:41:36;3.15;;;2.95;;
9280;SDS011;4679;47.966;7.958;2023-08-24T12:43:38;2.70;;;2.50;;
9280;SDS011;4679;47.966;7.958;2023-08-24T12:45:39;4.00;;;2.70;;
9280;SDS011;4679;47.966;7.958;2023-08-24T12:47:41;5.53;;;2.72;;
9280;SDS011;4679;47.966;7.958;2023-08-24T12:49:43;2.60;;;2.40;;
9280;SDS011;4679;47.966;7.958;2023-08-24T12:51:45;2.80;;;2.65;;
9280;SDS011;4679;47.966;7.958;2023-08-24T12:53:47;2.78;;;2.58;;
9280;SDS011;4679;47.966;7.958;2023-08-24T12:55:49;2.80;;;2.60;;
9280;SDS011;4679;47.966;7.958;2023-08-24T12:57:50;4.15;;;2.95;;
9280;SDS011;4679;47.966;7.958;2023-08-24T12:59:53;4.68;;;2.55;;
9280;SDS011;4679;47.966;7.958;2023-08-24T13:01:54;4.85;;;2.83;;
9280;SDS011;4679;47.966;7.958;2023-08-24T13:03:56;2.60;;;2.40;;
9280;SDS011;4679;47.966;7.958;2023-08-24T13:05:59;4.35;;;2.60;;
9280;SDS011;4679;47.966;7.958;2023-08-24T13:08:01;4.05;;;2.63;;
9280;SDS011;4679;47.966;7.958;2023-08-24T13:10:03;3.60;;;2.67;;
9280;SDS011;4679;47.966;7.958;2023-08-24T13:12:06;3.60;;;2.88;;
9280;SDS011;4679;47.966;7.958;2023-08-24T13:14:08;3.55;;;2.92;;
9280;SDS011;4679;47.966;7.958;2023-08-24T13:16:10;2.88;;;2.60;;
9280;SDS011;4679;47.966;7.958;2023-08-24T13:18:11;2.38;;;2.20;;
9280;SDS011;4679;47.966;7.958;2023-08-24T13:20:13;3.00;;;2.80;;
9280;SDS011;4679;47.966;7.958;2023-08-24T13:22:16;2.33;;;2.22;;
9280;SDS011;4679;47.966;7.958;2023-08-24T13:24:17;4.25;;;3.10;;
9280;SDS011;4679;47.966;7.958;2023-08-24T13:26:19;2.97;;;2.67;;
9280;SDS011;4679;47.966;7.958;2023-08-24T13:28:23;2.47;;;2.38;;
9280;SDS011;4679;47.966;7.958;2023-08-24T13:30:25;4.70;;;3.03;;
9280;SDS011;4679;47.966;7.958;2023-08-24T13:32:27;4.97;;;3.08;;
9280;SDS011;4679;47.966;7.958;2023-08-24T13:34:29;3.53;;;2.53;;
9280;SDS011;4679;47.966;7.958;2023-08-24T13:36:31;3.10;;;2.60;;
9280;SDS011;4679;47.966;7.958;2023-08-24T13:38:34;5.00;;;2.38;;
9280;SDS011;4679;47.966;7.958;2023-08-24T13:40:36;3.47;;;2.33;;
9280;SDS011;4679;47.966;7.958;2023-08-24T13:42:38;5.85;;;2.85;;
9280;SDS011;4679;47.966;7.958;2023-08-24T13:44:39;2.33;;;2.20;;
9280;SDS011;4679;47.966;7.958;2023-08-24T13:46:41;3.00;;;2.67;;
9280;SDS011;4679;47.966;7.958;2023-08-24T13:48:43;4.38;;;2.55;;
9280;SDS011;4679;47.966;7.958;2023-08-24T13:50:49;3.90;;;2.70;;
9280;SDS011;4679;47.966;7.958;2023-08-24T13:52:51;5.47;;;3.08;;
9280;SDS011;4679;47.966;7.958;2023-08-24T13:54:54;4.05;;;1.95;;
9280;SDS011;4679;47.966;7.958;2023-08-24T13:56:56;4.65;;;2.83;;
9280;SDS011;4679;47.966;7.958;2023-08-24T13:58:59;3.97;;;2.38;;
9280;SDS011;4679;47.966;7.958;2023-08-24T14:01:00;8.40;;;3.42;;
9280;SDS011;4679;47.966;7.958;2023-08-24T14:03:03;2.83;;;2.33;;
9280;SDS011;4679;47.966;7.958;2023-08-24T14:05:06;2.47;;;2.35;;
9280;SDS011;4679;47.966;7.958;2023-08-24T14:07:09;2.35;;;2.25;;
9280;SDS011;4679;47.966;7.958;2023-08-24T14:09:11;8.05;;;3.13;;
9280;SDS011;4679;47.966;7.958;2023-08-24T14:11:14;2.58;;;1.92;;
9280;SDS011;4679;47.966;7.958;2023-08-24T14:13:16;5.40;;;3.03;;
9280;SDS011;4679;47.966;7.958;2023-08-24T14:15:18;6.35;;;2.58;;
9280;SDS011;4679;47.966;7.958;2023-08-24T14:17:20;3.85;;;2.38;;
9280;SDS011;4679;47.966;7.958;2023-08-24T14:19:20;5.07;;;2.28;;
9280;SDS011;4679;47.966;7.958;2023-08-24T14:21:22;4.63;;;2.50;;
9280;SDS011;4679;47.966;7.958;2023-08-24T14:23:24;2.40;;;2.20;;
9280;SDS011;4679;47.966;7.958;2023-08-24T14:25:26;8.27;;;2.55;;
9280;SDS011;4679;47.966;7.958;2023-08-24T14:27:29;4.38;;;2.33;;
9280;SDS011;4679;47.966;7.958;2023-08-24T14:29:30;3.28;;;2.00;;
9280;SDS011;4679;47.966;7.958;2023-08-24T14:31:32;5.13;;;2.45;;
9280;SDS011;4679;47.966;7.958;2023-08-24T14:33:34;3.40;;;1.80;;
9280;SDS011;4679;47.966;7.958;2023-08-24T14:35:35;6.45;;;2.10;;
9280;SDS011;4679;47.966;7.958;2023-08-24T14:37:37;5.28;;;2.22;;
9280;SDS011;4679;47.966;7.958;2023-08-24T14:39:39;2.53;;;1.90;;
9280;SDS011;4679;47.966;7.958;2023-08-24T14:44:07;3.45;;;2.25;;
9280;SDS011;4679;47.966;7.958;2023-08-24T14:46:09;5.35;;;1.98;;
9280;SDS011;4679;47.966;7.958;2023-08-24T14:48:11;8.45;;;1.67;;
9280;SDS011;4679;47.966;7.958;2023-08-24T14:50:13;5.90;;;2.00;;
9280;SDS011;4679;47.966;7.958;2023-08-24T14:52:14;4.57;;;2.05;;
9280;SDS011;4679;47.966;7.958;2023-08-24T14:54:16;5.38;;;1.83;;
9280;SDS011;4679;47.966;7.958;2023-08-24T14:56:18;5.18;;;1.77;;
9280;SDS011;4679;47.966;7.958;2023-08-24T14:58:20;4.03;;;2.30;;
9280;SDS011;4679;47.966;7.958;2023-08-24T15:00:22;3.95;;;1.83;;
9280;SDS011;4679;47.966;7.958;2023-08-24T15:02:24;5.35;;;1.30;;
9280;SDS011;4679;47.966;7.958;2023-08-24T15:04:25;4.93;;;1.80;;
9280;SDS011;4679;47.966;7.958;2023-08-24T15:06:27;5.80;;;1.60;;
9280;SDS011;4679;47.966;7.958;2023-08-24T15:08:29;7.53;;;2.05;;
9280;SDS011;4679;47.966;7.958;2023-08-24T15:10:31;3.83;;;1.60;;
9280;SDS011;4679;47.966;7.958;2023-08-24T15:12:32;5.38;;;2.00;;
9280;SDS011;4679;47.966;7.958;2023-08-24T15:14:34;5.78;;;2.25;;
9280;SDS011;4679;47.966;7.958;2023-08-24T15:16:37;7.13;;;1.80;;
9280;SDS011;4679;47.966;7.958;2023-08-24T15:18:38;4.00;;;1.92;;
9280;SDS011;4679;47.966;7.958;2023-08-24T15:20:39;7.82;;;2.28;;
9280;SDS011;4679;47.966;7.958;2023-08-24T15:22:41;1.98;;;1.50;;
9280;SDS011;4679;47.966;7.958;2023-08-24T15:24:42;3.95;;;1.70;;
9280;SDS011;4679;47.966;7.958;2023-08-24T15:26:44;5.32;;;1.90;;
9280;SDS011;4679;47.966;7.958;2023-08-24T15:31:12;5.15;;;2.25;;
9280;SDS011;4679;47.966;7.958;2023-08-24T15:33:17;6.20;;;2.00;;
9280;SDS011;4679;47.966;7.958;2023-08-24T15:35:19;4.88;;;2.03;;
9280;SDS011;4679;47.966;7.958;2023-08-24T15:37:21;3.45;;;1.88;;
9280;SDS011;4679;47.966;7.958;2023-08-24T15:39:23;4.40;;;1.80;;
9280;SDS011;4679;47.966;7.958;2023-08-24T15:41:24;4.97;;;1.70;;
9280;SDS011;4679;47.966;7.958;2023-08-24T15:43:25;4.18;;;1.83;;
9280;SDS011;4679;47.966;7.958;2023-08-24T15:45:27;2.80;;;2.10;;
9280;SDS011;4679;47.966;7.958;2023-08-24T15:47:30;6.88;;;2.10;;
9280;SDS011;4679;47.966;7.958;2023-08-24T15:49:33;4.57;;;1.92;;
9280;SDS011;4679;47.966;7.958;2023-08-24T15:51:34;5.38;;;2.45;;
9280;SDS011;4679;47.966;7.958;2023-08-24T15:53:36;5.32;;;2.10;;
9280;SDS011;4679;47.966;7.958;2023-08-24T15:55:38;5.18;;;1.90;;
9280;SDS011;4679;47.966;7.958;2023-08-24T15:57:40;2.92;;;2.13;;
9280;SDS011;4679;47.966;7.958;2023-08-24T15:59:42;3.03;;;2.28;;
9280;SDS011;4679;47.966;7.958;2023-08-24T16:01:44;2.45;;;2.05;;
9280;SDS011;4679;47.966;7.958;2023-08-24T16:03:46;5.40;;;2.38;;
9280;SDS011;4679;47.966;7.958;2023-08-24T16:05:49;3.05;;;2.75;;
9280;SDS011;4679;47.966;7.958;2023-08-24T16:07:51;5.18;;;3.80;;
9280;SDS011;4679;47.966;7.958;2023-08-24T16:09:53;4.03;;;2.53;;
9280;SDS011;4679;47.966;7.958;2023-08-24T16:11:54;3.03;;;2.72;;
9280;SDS011;4679;47.966;7.958;2023-08-24T16:13:56;8.02;;;3.63;;
9280;SDS011;4679;47.966;7.958;2023-08-24T16:15:57;3.25;;;3.03;;
9280;SDS011;4679;47.966;7.958;2023-08-24T16:17:58;5.80;;;2.92;;
9280;SDS011;4679;47.966;7.958;2023-08-24T16:20:01;2.63;;;2.42;;
9280;SDS011;4679;47.966;7.958;2023-08-24T16:22:08;4.03;;;2.70;;
9280;SDS011;4679;47.966;7.958;2023-08-24T16:24:10;4.32;;;2.83;;
9280;SDS011;4679;47.966;7.958;2023-08-24T16:26:11;3.03;;;2.63;;
9280;SDS011;4679;47.966;7.958;2023-08-24T16:28:13;3.58;;;2.63;;
9280;SDS011;4679;47.966;7.958;2023-08-24T16:30:15;4.00;;;2.72;;
9280;SDS011;4679;47.966;7.958;2023-08-24T16:32:16;5.93;;;3.45;;
9280;SDS011;4679;47.966;7.958;2023-08-24T16:34:18;4.80;;;2.33;;
9280;SDS011;4679;47.966;7.958;2023-08-24T16:36:21;4.45;;;2.92;;
9280;SDS011;4679;47.966;7.958;2023-08-24T16:38:24;3.60;;;2.55;;
9280;SDS011;4679;47.966;7.958;2023-08-24T16:40:26;3.55;;;2.45;;
9280;SDS011;4679;47.966;7.958;2023-08-24T16:42:28;5.13;;;2.67;;
9280;SDS011;4679;47.966;7.958;2023-08-24T16:44:29;3.08;;;2.72;;
9280;SDS011;4679;47.966;7.958;2023-08-24T16:46:31;5.00;;;2.90;;
9280;SDS011;4679;47.966;7.958;2023-08-24T16:48:33;4.22;;;2.90;;
9280;SDS011;4679;47.966;7.958;2023-08-24T16:50:34;4.07;;;3.35;;
9280;SDS011;4679;47.966;7.958;2023-08-24T16:52:35;3.40;;;3.20;;
9280;SDS011;4679;47.966;7.958;2023-08-24T16:54:38;3.90;;;3.53;;
9280;SDS011;4679;47.966;7.958;2023-08-24T16:56:40;7.38;;;4.00;;
9280;SDS011;4679;47.966;7.958;2023-08-24T16:58:41;3.42;;;3.10;;
9280;SDS011;4679;47.966;7.958;2023-08-24T17:00:43;3.65;;;3.45;;
9280;SDS011;4679;47.966;7.958;2023-08-24T17:02:44;4.72;;;3.25;;
9280;SDS011;4679;47.966;7.958;2023-08-24T17:04:45;4.68;;;3.88;;
9280;SDS011;4679;47.966;7.958;2023-08-24T17:06:47;6.15;;;3.80;;
9280;SDS011;4679;47.966;7.958;2023-08-24T17:08:49;3.40;;;3.17;;
9280;SDS011;4679;47.966;7.958;2023-08-24T17:10:52;4.10;;;3.75;;
9280;SDS011;4679;47.966;7.958;2023-08-24T17:12:53;5.63;;;3.45;;
9280;SDS011;4679;47.966;7.958;2023-08-24T17:14:55;3.58;;;2.90;;
9280;SDS011;4679;47.966;7.958;2023-08-24T17:16:57;3.63;;;3.30;;
9280;SDS011;4679;47.966;7.958;2023-08-24T17:19:00;3.58;;;3.35;;
9280;SDS011;4679;47.966;7.958;2023-08-24T17:21:02;3.30;;;2.95;;
9280;SDS011;4679;47.966;7.958;2023-08-24T17:23:04;6.25;;;3.28;;
9280;SDS011;4679;47.966;7.958;2023-08-24T17:25:06;3.47;;;3.17;;
9280;SDS011;4679;47.966;7.958;2023-08-24T17:27:10;4.88;;;3.65;;
9280;SDS011;4679;47.966;7.958;2023-08-24T17:29:13;3.92;;;3.42;;
9280;SDS011;4679;47.966;7.958;2023-08-24T17:31:15;6.30;;;2.38;;
9280;SDS011;4679;47.966;7.958;2023-08-24T17:33:16;6.35;;;1.60;;
9280;SDS011;4679;47.966;7.958;2023-08-24T17:35:20;4.25;;;1.73;;
9280;SDS011;4679;47.966;7.958;2023-08-24T17:37:22;2.22;;;1.52;;
9280;SDS011;4679;47.966;7.958;2023-08-24T17:39:24;2.92;;;1.42;;
9280;SDS011;4679;47.966;7.958;2023-08-24T17:41:28;3.47;;;1.40;;
9280;SDS011;4679;47.966;7.958;2023-08-24T17:43:31;3.55;;;1.52;;
9280;SDS011;4679;47.966;7.958;2023-08-24T17:45:36;3.60;;;1.30;;
9280;SDS011;4679;47.966;7.958;2023-08-24T17:47:38;5.82;;;1.67;;
9280;SDS011;4679;47.966;7.958;2023-08-24T17:49:40;3.85;;;1.65;;
9280;SDS011;4679;47.966;7.958;2023-08-24T17:51:42;4.10;;;1.20;;
9280;SDS011;4679;47.966;7.958;2023-08-24T17:53:43;5.10;;;1.50;;
9280;SDS011;4679;47.966;7.958;2023-08-24T17:55:45;6.47;;;1.40;;
9280;SDS011;4679;47.966;7.958;2023-08-24T17:57:46;9.25;;;2.50;;
9280;SDS011;4679;47.966;7.958;2023-08-24T17:59:50;9.10;;;4.18;;
9280;SDS011;4679;47.966;7.958;2023-08-24T18:01:51;6.78;;;2.40;;
9280;SDS011;4679;47.966;7.958;2023-08-24T18:03:53;2.95;;;1.15;;
9280;SDS011;4679;47.966;7.958;2023-08-24T18:05:54;3.10;;;1.20;;
9280;SDS011;4679;47.966;7.958;2023-08-24T18:07:56;3.92;;;1.00;;
9280;SDS011;4679;47.966;7.958;2023-08-24T18:09:57;1.88;;;0.80;;
9280;SDS011;4679;47.966;7.958;2023-08-24T18:11:59;4.90;;;1.38;;
9280;SDS011;4679;47.966;7.958;2023-08-24T18:14:01;2.78;;;1.10;;
9280;SDS011;4679;47.966;7.958;2023-08-24T18:16:04;3.20;;;1.00;;
9280;SDS011;4679;47.966;7.958;2023-08-24T18:18:06;4.43;;;1.23;;
9280;SDS011;4679;47.966;7.958;2023-08-24T18:20:08;1.15;;;0.90;;
9280;SDS011;4679;47.966;7.958;2023-08-24T18:22:10;2.70;;;0.98;;
9280;SDS011;4679;47.966;7.958;2023-08-24T18:24:12;1.65;;;0.73;;
9280;SDS011;4679;47.966;7.958;2023-08-24T18:26:14;3.33;;;0.70;;
9280;SDS011;4679;47.966;7.958;2023-08-24T18:28:15;1.98;;;0.90;;
9280;SDS011;4679;47.966;7.958;2023-08-24T18:30:17;1.60;;;0.82;;
9280;SDS011;4679;47.966;7.958;2023-08-24T18:32:20;1.30;;;0.90;;
9280;SDS011;4679;47.966;7.958;2023-08-24T18:34:22;1.63;;;0.70;;
9280;SDS011;4679;47.966;7.958;2023-08-24T18:36:25;0.60;;;0.60;;
9280;SDS011;4679;47.966;7.958;2023-08-24T18:38:27;3.45;;;0.60;;
9280;SDS011;4679;47.966;7.958;2023-08-24T18:40:29;2.33;;;1.00;;
9280;SDS011;4679;47.966;7.958;2023-08-24T18:42:31;2.03;;;0.70;;
9280;SDS011;4679;47.966;7.958;2023-08-24T18:44:33;0.60;;;0.60;;
9280;SDS011;4679;47.966;7.958;2023-08-24T18:46:34;0.50;;;0.50;;
9280;SDS011;4679;47.966;7.958;2023-08-24T18:48:37;1.25;;;1.00;;
9280;SDS011;4679;47.966;7.958;2023-08-24T18:50:39;1.27;;;0.80;;
9280;SDS011;4679;47.966;7.958;2023-08-24T18:52:41;2.05;;;0.77;;
9280;SDS011;4679;47.966;7.958;2023-08-24T18:54:43;2.35;;;0.80;;
9280;SDS011;4679;47.966;7.958;2023-08-24T18:56:45;0.83;;;0.60;;
9280;SDS011;4679;47.966;7.958;2023-08-24T18:58:47;1.00;;;0.57;;
9280;SDS011;4679;47.966;7.958;2023-08-24T19:00:47;1.02;;;0.50;;
9280;SDS011;4679;47.966;7.958;2023-08-24T19:02:49;0.73;;;0.40;;
9280;SDS011;4679;47.966;7.958;2023-08-24T19:04:52;0.60;;;0.40;;
9280;SDS011;4679;47.966;7.958;2023-08-24T19:06:54;0.40;;;0.40;;
9280;SDS011;4679;47.966;7.958;2023-08-24T19:08:55;0.67;;;0.40;;
9280;SDS011;4679;47.966;7.958;2023-08-24T19:10:58;0.90;;;0.47;;
9280;SDS011;4679;47.966;7.958;2023-08-24T19:13:00;1.23;;;0.45;;
9280;SDS011;4679;47.966;7.958;2023-08-24T19:15:02;1.27;;;0.50;;
9280;SDS011;4679;47.966;7.958;2023-08-24T19:17:04;2.20;;;0.60;;
9280;SDS011;4679;47.966;7.958;2023-08-24T19:19:06;1.42;;;0.60;;
9280;SDS011;4679;47.966;7.958;2023-08-24T19:21:09;0.43;;;0.40;;
9280;SDS011;4679;47.966;7.958;2023-08-24T19:23:12;0.50;;;0.50;;
9280;SDS011;4679;47.966;7.958;2023-08-24T19:25:13;1.75;;;0.40;;
9280;SDS011;4679;47.966;7.958;2023-08-24T19:27:15;1.27;;;0.40;;
9280;SDS011;4679;47.966;7.958;2023-08-24T19:29:17;0.57;;;0.40;;
9280;SDS011;4679;47.966;7.958;2023-08-24T19:31:19;1.13;;;0.50;;
9280;SDS011;4679;47.966;7.958;2023-08-24T19:33:20;0.60;;;0.50;;
9280;SDS011;4679;47.966;7.958;2023-08-24T19:35:22;1.23;;;0.40;;
9280;SDS011;4679;47.966;7.958;2023-08-24T19:37:25;0.97;;;0.40;;
9280;SDS011;4679;47.966;7.958;2023-08-24T19:39:26;1.77;;;0.45;;
9280;SDS011;4679;47.966;7.958;2023-08-24T19:41:28;2.70;;;0.50;;
9280;SDS011;4679;47.966;7.958;2023-08-24T19:43:30;0.50;;;0.40;;
9280;SDS011;4679;47.966;7.958;2023-08-24T19:45:30;1.50;;;0.60;;
9280;SDS011;4679;47.966;7.958;2023-08-24T19:47:34;0.60;;;0.60;;
9280;SDS011;4679;47.966;7.958;2023-08-24T19:49:37;0.57;;;0.57;;
9280;SDS011;4679;47.966;7.958;2023-08-24T19:51:40;0.87;;;0.73;;
9280;SDS011;4679;47.966;7.958;2023-08-24T19:53:43;1.70;;;0.80;;
9280;SDS011;4679;47.966;7.958;2023-08-24T19:55:43;0.70;;;0.60;;
9280;SDS011;4679;47.966;7.958;2023-08-24T19:57:45;0.50;;;0.50;;
9280;SDS011;4679;47.966;7.958;2023-08-24T19:59:47;0.80;;;0.80;;
9280;SDS011;4679;47.966;7.958;2023-08-24T20:01:49;0.90;;;0.60;;
9280;SDS011;4679;47.966;7.958;2023-08-24T20:03:49;0.60;;;0.60;;
9280;SDS011;4679;47.966;7.958;2023-08-24T20:05:52;0.50;;;0.50;;
9280;SDS011;4679;47.966;7.958;2023-08-24T20:07:55;0.70;;;0.70;;
9280;SDS011;4679;47.966;7.958;2023-08-24T20:09:58;0.50;;;0.50;;
9280;SDS011;4679;47.966;7.958;2023-08-24T20:11:59;0.60;;;0.60;;
9280;SDS011;4679;47.966;7.958;2023-08-24T20:14:01;2.15;;;0.80;;
9280;SDS011;4679;47.966;7.958;2023-08-24T20:16:02;4.17;;;0.70;;
9280;SDS011;4679;47.966;7.958;2023-08-24T20:18:05;0.90;;;0.90;;
9280;SDS011;4679;47.966;7.958;2023-08-24T20:20:07;1.03;;;0.93;;
9280;SDS011;4679;47.966;7.958;2023-08-24T20:22:12;1.00;;;1.00;;
9280;SDS011;4679;47.966;7.958;2023-08-24T20:24:14;0.90;;;0.90;;
9280;SDS011;4679;47.966;7.958;2023-08-24T20:26:17;0.93;;;0.93;;
9280;SDS011;4679;47.966;7.958;2023-08-24T20:28:18;2.33;;;0.90;;
9280;SDS011;4679;47.966;7.958;2023-08-24T20:30:20;2.40;;;0.90;;
9280;SDS011;4679;47.966;7.958;2023-08-24T20:32:22;2.00;;;1.10;;
9280;SDS011;4679;47.966;7.958;2023-08-24T20:34:22;0.70;;;0.70;;
9280;SDS011;4679;47.966;7.958;2023-08-24T20:36:25;1.13;;;0.90;;
9280;SDS011;4679;47.966;7.958;2023-08-24T20:38:27;1.30;;;1.20;;
9280;SDS011;4679;47.966;7.958;2023-08-24T20:40:29;1.40;;;1.30;;
9280;SDS011;4679;47.966;7.958;2023-08-24T20:42:32;1.67;;;1.30;;
9280;SDS011;4679;47.966;7.958;2023-08-24T20:44:33;1.00;;;1.00;;
9280;SDS011;4679;47.966;7.958;2023-08-24T20:46:35;1.23;;;1.10;;
9280;SDS011;4679;47.966;7.958;2023-08-24T20:48:36;1.43;;;1.13;;
9280;SDS011;4679;47.966;7.958;2023-08-24T20:50:37;1.43;;;1.20;;
9280;SDS011;4679;47.966;7.958;2023-08-24T20:52:39;1.50;;;1.40;;
9280;SDS011;4679;47.966;7.958;2023-08-24T20:54:40;1.70;;;1.60;;